Flight Track Log - Related Links

Times and Time Zones

All times are in EST time to prevent confusion due to time zone crossing. See the WAV260 flight status page for this flight to view local times or setup timezone preferences in your user account.

Time Position Orientation Groundspeed Altitude Reporting Facility
EST Latitude Longitude Course Direction KTS MPH feet Rate Location/Type
Sun 09:14:35 PM 64.8833 -147.7167 31° Northeast 130 150 4,100  Level Anchorage Center
Sun 09:15:36 PM 64.9167 -147.6833 23° Northeast 120 138 5,100 843 Climbing Anchorage Center
Sun 09:16:36 PM 64.9500 -147.6500 23° Northeast 120 138 5,800 750 Climbing Anchorage Center
Sun 09:17:00 PM 65.0302 -147.5465 32° Northeast  Level FlightAware
Sun 09:17:36 PM 64.9667 -147.6000 52° Northeast 120 138 6,600  Level Anchorage Center
Sun 09:18:00 PM 65.0668 -147.4887 35° Northeast  Level FlightAware
Sun 09:18:37 PM 65.0000 -147.5667 23° Northeast 120 138 7,400  Level Anchorage Center
Sun 09:19:00 PM 65.1029 -147.4292 31° Northeast  Level FlightAware
Sun 09:19:37 PM 65.0333 -147.5333 23° Northeast 130 150 8,400  Level Anchorage Center
Sun 09:20:37 PM 65.0667 -147.4833 32° Northeast 140 161 9,000 298 Climbing Anchorage Center
Sun 09:21:38 PM 65.1000 -147.4333 32° Northeast 160 184 9,000  Level Anchorage Center
Sun 09:22:38 PM 65.1500 -147.3833 23° Northeast 170 196 9,000  Level Anchorage Center
Sun 09:23:38 PM 65.1833 -147.3167 40° Northeast 170 196 9,000  Level Anchorage Center
Sun 09:24:39 PM 65.2167 -147.2667 32° Northeast 160 184 9,000  Level Anchorage Center
Sun 09:25:39 PM 65.2667 -147.2167 23° Northeast 160 184 9,000  Level Anchorage Center
Sun 09:26:39 PM 65.3000 -147.1500 40° Northeast 160 184 9,000  Level Anchorage Center
Sun 09:27:40 PM 65.3333 -147.0833 40° Northeast 160 184 9,000  Level Anchorage Center
Sun 09:28:40 PM 65.3833 -147.0333 23° Northeast 160 184 9,000  Level Anchorage Center
Sun 09:29:41 PM 65.4167 -146.9833 32° Northeast 160 184 9,000  Level Anchorage Center
Sun 09:30:41 PM 65.4500 -146.9167 40° Northeast 170 196 9,000  Level Anchorage Center
Sun 09:31:41 PM 65.5000 -146.8500 29° Northeast 170 196 9,000  Level Anchorage Center
Sun 09:32:42 PM 65.5333 -146.8000 32° Northeast 160 184 9,000  Level Anchorage Center
Sun 09:33:42 PM 65.5667 -146.7333 40° Northeast 160 184 9,000  Level Anchorage Center
Sun 09:34:42 PM 65.6167 -146.6833 22° Northeast 160 184 9,000  Level Anchorage Center
Sun 09:35:43 PM 65.6500 -146.6167 39° Northeast 170 196 9,000  Level Anchorage Center
Sun 09:36:43 PM 65.7000 -146.5667 22° Northeast 170 196 9,000  Level Anchorage Center
Sun 09:37:43 PM 65.7333 -146.5167 32° Northeast 170 196 9,000  Level Anchorage Center
Sun 09:38:44 PM 65.7833 -146.4667 22° Northeast 170 196 9,000 -99 Level Anchorage Center
Sun 09:39:44 PM 65.8167 -146.4333 22° Northeast 170 196 8,800 -248 Descending Anchorage Center
Sun 09:40:45 PM 65.8667 -146.3833 22° Northeast 160 184 8,500 -446 Descending Anchorage Center
Sun 09:41:45 PM 65.9167 -146.3333 22° Northeast 180 207 7,900 -550 Descending Anchorage Center
Sun 09:42:45 PM 65.9500 -146.2833 31° Northeast 160 184 7,400 -545 Descending Anchorage Center
Sun 09:43:46 PM 66.0000 -146.2333 22° Northeast 170 196 6,800 -545 Descending Anchorage Center
Sun 09:44:46 PM 66.0333 -146.2000 22° Northeast 170 196 6,300 -550 Descending Anchorage Center
Sun 09:45:46 PM 66.0833 -146.1500 22° Northeast 170 196 5,700 -496 Descending Anchorage Center
Sun 09:46:47 PM 66.1333 -146.1000 22° Northeast 170 196 5,300 -298 Descending Anchorage Center
Sun 09:47:47 PM 66.1667 -146.0667 22° Northeast 170 196 5,100 -300 Descending Anchorage Center
Sun 09:48:47 PM 66.2167 -146.0167 22° Northeast 160 184 4,700 -298 Descending Anchorage Center
Sun 09:49:48 PM 66.2500 -145.9667 31° Northeast 160 184 4,500 -248 Descending Anchorage Center
Sun 09:50:48 PM 66.2833 -145.9167 31° Northeast 160 184 4,200 -350 Descending Anchorage Center
Sun 09:51:48 PM 66.3333 -145.8667 22° Northeast 170 196 3,800 -347 Descending Anchorage Center
Sun 09:52:49 PM 66.3667 -145.8167 31° Northeast 170 196 3,500 -198 Descending Anchorage Center
Sun 09:53:49 PM 66.4167 -145.7500 28° Northeast 150 173 3,400  Descending Anchorage Center
Sun 09:54:49 PM 66.4500 -145.7167 22° Northeast 120 138 3,500 100 Climbing Anchorage Center
Sun 09:55:49 PM 66.4667 -145.6500 58° Northeast 110 127 3,600 50 Climbing Anchorage Center
Sun 09:56:49 PM 66.4833 -145.5833 58° Northeast 110 127 3,600 -248 Level Anchorage Center
Sun 09:57:50 PM 66.5000 -145.5167 58° Northeast 110 127 3,100 -545 Descending Anchorage Center
Sun 09:58:50 PM 66.5167 -145.4500 58° Northeast 120 138 2,500 -600 Descending Anchorage Center
Sun 10:01:00 PM 66.5458 -145.3439 34° Northeast  Level Estimated
Sun 10:08:00 PM 66.5667 -145.2333 34° Northeast  Level FlightAware
Sun 10:09:00 PM 66.5724 -145.2463 34° Northeast  Level Estimated
Sun 10:10:00 PM 66.5724 -145.2463 34° Northeast  Level Estimated
Sun 10:11:00 PM 66.5724 -145.2463 34° Northeast  Level Estimated
Sun 10:12:00 PM 66.5724 -145.2463 34° Northeast  Level Estimated

Login

Don't have an account? Register now (free) for customized features, flight alerts, and more!